Time;durP1;ratioP1;P1;durP2;ratioP2;P2;SDS_P1;SDS_P2;PMS_P1;PMS_P2;Temp;Humidity;BMP_temperature;BMP_pressure;BME280_temperature;BME280_humidity;BME280_pressure;Samples;Min_cycle;Max_cycle;Signal;HPM_P1;HPM_P2
2022/09/18 00:01:44;;;;;;;2.30;0.70;;;22.40;44.90;;;;;;5047704;28;20021;-49
2022/09/18 00:04:15;;;;;;;3.58;1.05;;;22.40;45.00;;;;;;5039216;28;20029;-51
2022/09/18 00:06:42;;;;;;;2.15;0.90;;;22.40;45.00;;;;;;5036055;28;20334;-50
2022/09/18 00:09:11;;;;;;;2.28;1.00;;;22.40;45.00;;;;;;5046177;28;20394;-51
2022/09/18 00:11:41;;;;;;;1.63;0.70;;;22.40;45.00;;;;;;5045709;28;20577;-50
2022/09/18 00:14:10;;;;;;;2.95;0.90;;;22.40;45.00;;;;;;5040105;28;20456;-51
2022/09/18 00:16:36;;;;;;;1.58;0.70;;;22.40;45.10;;;;;;5044833;28;20036;-50
2022/09/18 00:19:03;;;;;;;2.92;0.77;;;22.40;45.10;;;;;;5047950;28;20598;-52
2022/09/18 00:21:30;;;;;;;2.85;0.98;;;22.40;45.10;;;;;;5048039;28;20044;-53
2022/09/18 00:23:58;;;;;;;3.42;0.77;;;22.40;45.10;;;;;;5044629;28;20178;-50
2022/09/18 00:26:24;;;;;;;3.83;0.90;;;22.40;45.10;;;;;;5043784;28;20029;-52
2022/09/18 00:28:52;;;;;;;1.58;0.70;;;22.40;45.10;;;;;;5046571;28;20037;-50
2022/09/18 00:31:24;;;;;;;2.30;0.93;;;22.40;45.10;;;;;;5045554;28;20044;-50
2022/09/18 00:33:51;;;;;;;1.33;0.60;;;22.40;45.20;;;;;;5047190;28;20064;-53
2022/09/18 00:36:17;;;;;;;2.08;0.88;;;22.40;45.20;;;;;;5044892;28;20029;-51
2022/09/18 00:38:44;;;;;;;2.70;0.65;;;22.40;45.20;;;;;;5041995;28;20093;-48
2022/09/18 00:41:14;;;;;;;2.72;0.80;;;22.40;45.20;;;;;;5044273;28;20020;-49
2022/09/18 00:43:40;;;;;;;3.28;0.82;;;22.40;45.20;;;;;;5045265;28;20045;-51
2022/09/18 00:46:23;;;;;;;1.38;0.57;;;22.40;45.20;;;;;;5041967;28;20068;-53
2022/09/18 00:48:52;;;;;;;2.92;0.77;;;22.30;45.20;;;;;;5045552;28;20021;-49
2022/09/18 00:51:19;;;;;;;1.73;0.60;;;22.40;45.30;;;;;;5044660;28;20112;-50
2022/09/18 00:53:54;;;;;;;2.67;0.82;;;22.30;45.20;;;;;;5042707;28;20120;-49
2022/09/18 00:56:20;;;;;;;1.13;0.63;;;22.40;45.30;;;;;;5043997;28;20113;-55
2022/09/18 00:58:46;;;;;;;2.63;0.65;;;22.30;45.30;;;;;;5046307;28;20115;-51
2022/09/18 01:01:12;;;;;;;1.38;0.60;;;22.30;45.30;;;;;;5058107;28;20033;-49
2022/09/18 01:03:38;;;;;;;1.17;0.52;;;22.30;45.30;;;;;;5046518;28;20025;-52
2022/09/18 01:06:13;;;;;;;1.88;0.60;;;22.30;45.40;;;;;;5050027;28;20017;-50
2022/09/18 01:08:54;;;;;;;2.35;0.70;;;22.30;45.40;;;;;;5047212;28;20676;-51
2022/09/18 01:11:50;;;;;;;1.80;0.68;;;22.30;45.40;;;;;;5046775;28;20551;-51
2022/09/18 01:14:39;;;;;;;1.42;0.60;;;22.30;45.40;;;;;;5042002;28;20438;-49
2022/09/18 01:17:32;;;;;;;2.92;1.00;;;22.30;45.50;;;;;;5050220;28;20029;-52
2022/09/18 01:20:10;;;;;;;2.22;0.88;;;22.30;45.50;;;;;;5037089;28;20029;-52
2022/09/18 01:22:58;;;;;;;1.58;0.60;;;22.30;45.60;;;;;;5041592;28;20037;-49
2022/09/18 01:25:32;;;;;;;1.33;0.60;;;22.30;45.50;;;;;;5048188;28;20106;-50
2022/09/18 01:28:16;;;;;;;2.83;0.70;;;22.30;45.60;;;;;;5049201;28;20036;-50
2022/09/18 01:30:46;;;;;;;1.98;0.63;;;22.30;45.60;;;;;;5048108;28;20344;-47
2022/09/18 01:33:42;;;;;;;3.55;0.80;;;22.30;45.60;;;;;;5045473;28;20449;-51
2022/09/18 01:36:12;;;;;;;2.35;0.88;;;22.30;45.60;;;;;;5033991;28;20528;-50
2022/09/18 01:38:48;;;;;;;1.80;0.70;;;22.20;45.60;;;;;;5046137;28;20025;-50
2022/09/18 01:41:20;;;;;;;2.15;1.10;;;22.20;45.70;;;;;;5044971;28;20024;-49
2022/09/18 01:43:51;;;;;;;2.13;0.73;;;22.20;45.70;;;;;;5047447;28;20037;-50
2022/09/18 01:46:19;;;;;;;2.65;0.82;;;22.20;45.70;;;;;;5046333;28;20037;-52
2022/09/18 01:48:59;;;;;;;1.95;0.50;;;22.30;45.70;;;;;;5046996;28;20028;-51
2022/09/18 01:51:51;;;;;;;2.85;0.90;;;22.20;45.70;;;;;;5049058;28;20037;-53
2022/09/18 01:54:22;;;;;;;2.83;0.88;;;22.20;45.70;;;;;;5040526;28;20028;-52
2022/09/18 01:56:56;;;;;;;1.63;0.60;;;22.20;45.70;;;;;;5049916;28;20028;-52
2022/09/18 01:59:44;;;;;;;1.27;0.50;;;22.20;45.70;;;;;;5044480;28;20037;-50
2022/09/18 02:02:18;;;;;;;2.00;0.88;;;22.20;45.80;;;;;;5034392;28;20030;-47
2022/09/18 02:04:49;;;;;;;1.33;0.40;;;22.20;45.80;;;;;;5047860;28;20444;-53
2022/09/18 02:07:27;;;;;;;2.47;0.70;;;22.20;45.80;;;;;;5034231;28;20747;-49
2022/09/18 02:09:57;;;;;;;3.42;0.70;;;22.20;45.80;;;;;;5043905;28;20021;-48
2022/09/18 02:12:25;;;;;;;1.52;0.60;;;22.20;45.90;;;;;;5045536;28;20574;-51
2022/09/18 02:14:59;;;;;;;3.72;0.65;;;22.20;45.90;;;;;;5040316;28;20135;-51
2022/09/18 02:18:02;;;;;;;1.90;0.60;;;22.20;45.90;;;;;;5048125;28;20464;-51
2022/09/18 02:20:43;;;;;;;2.67;0.70;;;22.20;46.00;;;;;;5018536;28;20104;-49
2022/09/18 02:23:09;;;;;;;3.03;0.82;;;22.20;46.00;;;;;;5047956;28;20045;-49
2022/09/18 02:25:50;;;;;;;1.67;0.60;;;22.20;46.00;;;;;;5049533;28;20049;-53
2022/09/18 02:28:19;;;;;;;1.30;0.60;;;22.20;46.00;;;;;;5046093;28;20032;-51
2022/09/18 02:30:45;;;;;;;2.00;0.60;;;22.20;46.10;;;;;;5036499;28;20033;-51
2022/09/18 02:33:32;;;;;;;1.63;0.70;;;22.20;46.10;;;;;;5047187;28;20098;-50
2022/09/18 02:36:11;;;;;;;1.90;0.60;;;22.20;46.10;;;;;;5036907;28;20453;-51
2022/09/18 02:38:52;;;;;;;2.58;0.60;;;22.20;46.10;;;;;;5048213;28;20040;-52
2022/09/18 02:42:00;;;;;;;1.30;0.70;;;22.20;46.10;;;;;;5033553;28;20065;-50
2022/09/18 02:44:48;;;;;;;2.05;0.57;;;22.20;46.10;;;;;;5046356;28;20103;-49
2022/09/18 02:47:42;;;;;;;1.90;0.60;;;22.20;46.20;;;;;;5049199;28;20029;-51
2022/09/18 02:50:24;;;;;;;3.28;0.43;;;22.20;46.20;;;;;;5044056;28;20524;-50
2022/09/18 02:53:06;;;;;;;1.55;0.43;;;22.10;46.20;;;;;;5049434;28;20094;-50
2022/09/18 02:55:44;;;;;;;2.63;0.70;;;22.20;46.30;;;;;;5044968;28;20045;-49
2022/09/18 02:58:16;;;;;;;1.33;0.50;;;22.20;46.30;;;;;;5036828;28;20105;-48
2022/09/18 03:00:47;;;;;;;2.65;0.90;;;22.20;46.30;;;;;;5045269;28;20029;-47
2022/09/18 03:03:19;;;;;;;1.30;0.50;;;22.10;46.30;;;;;;5048811;28;20028;-48
2022/09/18 03:05:51;;;;;;;2.55;0.43;;;22.10;46.30;;;;;;5047004;28;20029;-50
2022/09/18 03:08:18;;;;;;;2.30;0.63;;;22.10;47.00;;;;;;5043622;28;20430;-50
2022/09/18 03:10:44;;;;;;;1.33;0.60;;;22.20;46.40;;;;;;5044632;28;20025;-49
2022/09/18 03:13:10;;;;;;;1.13;0.60;;;22.20;46.40;;;;;;5046477;28;20767;-52
2022/09/18 03:15:35;;;;;;;2.15;0.68;;;22.10;46.40;;;;;;5046756;28;20021;-50
2022/09/18 03:18:01;;;;;;;1.70;0.60;;;22.10;46.40;;;;;;5047449;28;20024;-50
2022/09/18 03:20:27;;;;;;;1.73;0.65;;;22.10;46.40;;;;;;5043385;28;20039;-48
2022/09/18 03:22:53;;;;;;;1.45;0.50;;;22.10;46.40;;;;;;5049551;28;20095;-49
2022/09/18 03:25:19;;;;;;;1.45;0.50;;;22.10;46.40;;;;;;5045056;28;20037;-52
2022/09/18 03:27:45;;;;;;;2.47;0.77;;;22.10;46.50;;;;;;5044366;28;20043;-50
2022/09/18 03:30:15;;;;;;;2.55;0.80;;;22.10;46.50;;;;;;5041244;28;20025;-51
2022/09/18 03:32:41;;;;;;;1.67;0.60;;;22.10;46.50;;;;;;5048348;28;20032;-51
2022/09/18 03:35:08;;;;;;;2.08;0.70;;;22.10;46.50;;;;;;5040965;28;20034;-50
2022/09/18 03:37:34;;;;;;;1.77;0.60;;;22.10;46.50;;;;;;5048152;28;20132;-48
2022/09/18 03:40:03;;;;;;;2.40;0.70;;;22.10;46.50;;;;;;5044130;28;20057;-49
2022/09/18 03:42:29;;;;;;;2.22;0.50;;;22.10;46.50;;;;;;5041970;28;20086;-49
2022/09/18 03:44:58;;;;;;;1.50;0.60;;;22.10;46.60;;;;;;5041835;28;20498;-47
2022/09/18 03:47:26;;;;;;;1.20;0.60;;;22.10;46.60;;;;;;5047069;28;20326;-50
2022/09/18 03:49:52;;;;;;;1.65;0.60;;;22.10;46.60;;;;;;5046475;28;20166;-51
2022/09/18 03:52:19;;;;;;;2.25;0.55;;;22.10;46.60;;;;;;5046211;28;20088;-56
2022/09/18 03:55:00;;;;;;;1.15;0.40;;;22.10;46.60;;;;;;5043179;28;20033;-51
2022/09/18 03:57:59;;;;;;;1.45;0.40;;;22.10;46.60;;;;;;5017731;28;20348;-54
2022/09/18 04:00:41;;;;;;;2.38;0.75;;;22.10;46.60;;;;;;5046030;28;20459;-51
2022/09/18 04:03:14;;;;;;;2.08;0.75;;;22.10;46.60;;;;;;5043376;28;20033;-50
2022/09/18 04:05:59;;;;;;;2.00;0.60;;;22.00;46.60;;;;;;5045574;28;20040;-53
2022/09/18 04:08:48;;;;;;;1.67;0.70;;;22.00;46.60;;;;;;5047394;28;20128;-47
2022/09/18 04:11:32;;;;;;;2.90;0.55;;;22.10;46.60;;;;;;5044637;28;20045;-50
2022/09/18 04:13:58;;;;;;;1.58;0.52;;;22.00;46.60;;;;;;5044542;28;20048;-51
2022/09/18 04:16:24;;;;;;;2.13;0.50;;;22.10;46.70;;;;;;5044462;28;20025;-50
2022/09/18 04:18:51;;;;;;;2.13;0.68;;;22.00;46.70;;;;;;5045877;28;20143;-48
2022/09/18 04:21:16;;;;;;;1.48;0.60;;;22.00;46.70;;;;;;5045571;28;20103;-50
2022/09/18 04:23:42;;;;;;;2.53;0.70;;;22.00;46.70;;;;;;5040636;28;20028;-50
2022/09/18 04:26:11;;;;;;;1.83;0.60;;;22.00;46.70;;;;;;5044318;28;20029;-50
2022/09/18 04:28:44;;;;;;;1.35;0.60;;;22.00;46.70;;;;;;5046832;28;20051;-49
2022/09/18 04:31:11;;;;;;;2.53;0.63;;;22.00;46.70;;;;;;5045273;28;20029;-47
2022/09/18 04:33:37;;;;;;;1.73;0.40;;;22.00;46.70;;;;;;5035922;28;20404;-52
2022/09/18 04:36:06;;;;;;;1.98;0.68;;;22.00;46.70;;;;;;5042443;28;20496;-51
2022/09/18 04:38:33;;;;;;;1.48;0.50;;;22.00;46.80;;;;;;5043790;28;20095;-51
2022/09/18 04:41:00;;;;;;;1.63;0.60;;;22.00;46.80;;;;;;5046557;28;20033;-50
2022/09/18 04:43:27;;;;;;;1.35;0.40;;;22.00;46.80;;;;;;5046064;28;20052;-51
2022/09/18 04:45:53;;;;;;;2.13;0.60;;;22.00;46.80;;;;;;5045040;28;20440;-49
2022/09/18 04:48:20;;;;;;;1.38;0.60;;;22.00;46.80;;;;;;5043091;28;20414;-50
2022/09/18 04:50:47;;;;;;;1.77;0.63;;;22.00;47.40;;;;;;5046592;28;20036;-51
2022/09/18 04:53:17;;;;;;;2.00;0.80;;;22.00;46.80;;;;;;5044824;28;20033;-48
2022/09/18 04:55:46;;;;;;;1.48;0.70;;;22.00;46.80;;;;;;5042749;28;20437;-48
2022/09/18 04:58:15;;;;;;;1.50;0.50;;;22.00;46.80;;;;;;5055343;28;20032;-49
2022/09/18 05:00:43;;;;;;;0.52;0.30;;;22.00;46.80;;;;;;5045216;28;20052;-49
2022/09/18 05:03:09;;;;;;;1.45;0.50;;;22.00;46.80;;;;;;5046030;28;20461;-51
2022/09/18 05:05:37;;;;;;;1.25;0.45;;;22.00;46.80;;;;;;5071267;28;20021;-49
2022/09/18 05:08:05;;;;;;;1.13;0.60;;;22.00;46.80;;;;;;5042055;28;20045;-51
2022/09/18 05:10:31;;;;;;;1.75;0.60;;;22.00;47.40;;;;;;5035330;28;20449;-51
2022/09/18 05:12:57;;;;;;;1.48;0.60;;;22.00;46.80;;;;;;5043870;28;20124;-48
2022/09/18 05:15:23;;;;;;;0.85;0.40;;;22.00;46.80;;;;;;5039764;28;20029;-49
2022/09/18 05:17:58;;;;;;;1.33;0.50;;;22.00;46.80;;;;;;5046268;28;20029;-52
2022/09/18 05:20:24;;;;;;;1.67;0.52;;;21.90;46.70;;;;;;5038469;28;20086;-48
2022/09/18 05:22:50;;;;;;;1.33;0.55;;;21.90;46.70;;;;;;5046874;28;20029;-52
2022/09/18 05:25:20;;;;;;;2.42;0.60;;;22.00;46.80;;;;;;5046334;28;20037;-51
2022/09/18 05:27:57;;;;;;;1.85;0.50;;;21.90;46.80;;;;;;5042341;28;20373;-49
2022/09/18 05:30:27;;;;;;;1.63;0.55;;;21.90;46.80;;;;;;5040962;28;20033;-48
2022/09/18 05:33:00;;;;;;;0.98;0.40;;;22.00;46.90;;;;;;5030962;28;20033;-49
2022/09/18 05:35:30;;;;;;;1.98;0.35;;;21.90;46.90;;;;;;5042547;28;20029;-51
2022/09/18 05:37:57;;;;;;;2.50;0.70;;;22.00;47.00;;;;;;5036462;28;20029;-52
2022/09/18 05:40:25;;;;;;;2.03;0.55;;;21.90;46.90;;;;;;5045740;28;20040;-49
2022/09/18 05:42:52;;;;;;;1.25;0.40;;;21.90;46.90;;;;;;5039965;28;20033;-50
2022/09/18 05:45:19;;;;;;;0.57;0.40;;;21.90;46.90;;;;;;5040143;28;20395;-53
2022/09/18 05:47:57;;;;;;;3.63;0.75;;;21.90;46.90;;;;;;5045365;28;20436;-50
2022/09/18 05:50:25;;;;;;;0.60;0.30;;;21.90;46.90;;;;;;5043925;28;20029;-49
2022/09/18 05:53:02;;;;;;;1.58;0.50;;;21.90;46.90;;;;;;5061485;28;20032;-49
2022/09/18 05:55:34;;;;;;;1.70;0.73;;;21.90;46.80;;;;;;5049241;28;20033;-51
2022/09/18 05:58:02;;;;;;;1.42;0.50;;;21.90;46.90;;;;;;5049113;28;20102;-52
2022/09/18 06:00:30;;;;;;;1.45;0.40;;;21.90;46.90;;;;;;5040459;28;20037;-54
2022/09/18 06:03:06;;;;;;;1.70;0.40;;;21.90;46.80;;;;;;5035370;28;20057;-52
2022/09/18 06:05:34;;;;;;;2.30;0.50;;;21.90;46.90;;;;;;5050425;28;20607;-50
2022/09/18 06:08:02;;;;;;;0.50;0.28;;;21.90;46.90;;;;;;5047771;28;20094;-49
2022/09/18 06:10:29;;;;;;;3.53;0.40;;;21.90;46.90;;;;;;5046081;28;20349;-48
2022/09/18 06:13:03;;;;;;;1.70;0.43;;;21.90;47.00;;;;;;5049851;28;20079;-47
2022/09/18 06:15:29;;;;;;;1.42;0.32;;;21.90;47.00;;;;;;5042006;28;20032;-47
2022/09/18 06:17:55;;;;;;;1.98;0.73;;;21.90;47.00;;;;;;5047721;28;20385;-48
2022/09/18 06:20:22;;;;;;;1.15;0.50;;;21.90;47.00;;;;;;5042503;28;20161;-52
2022/09/18 06:22:48;;;;;;;2.05;0.60;;;21.90;47.00;;;;;;5049349;28;20360;-48
2022/09/18 06:25:22;;;;;;;0.82;0.40;;;21.90;47.00;;;;;;5042418;28;20353;-50
2022/09/18 06:27:57;;;;;;;1.83;0.55;;;21.90;47.00;;;;;;5049572;28;20364;-50
2022/09/18 06:30:24;;;;;;;1.92;0.50;;;21.90;47.00;;;;;;5047287;28;20101;-49
2022/09/18 06:32:52;;;;;;;0.75;0.40;;;21.90;47.00;;;;;;5049434;28;20025;-51
2022/09/18 06:35:19;;;;;;;1.48;0.50;;;21.90;47.00;;;;;;5046076;28;20075;-49
2022/09/18 06:37:47;;;;;;;2.40;0.80;;;21.90;47.00;;;;;;5049682;28;20052;-49
2022/09/18 06:40:27;;;;;;;3.20;0.52;;;21.90;47.00;;;;;;5044153;28;20032;-49
2022/09/18 06:43:13;;;;;;;1.88;0.65;;;21.90;46.90;;;;;;5043741;28;20500;-52
2022/09/18 06:46:00;;;;;;;2.63;0.77;;;21.90;46.80;;;;;;5038215;28;20466;-47
2022/09/18 06:48:30;;;;;;;2.50;0.70;;;21.90;46.70;;;;;;5047946;28;20520;-51
2022/09/18 06:51:01;;;;;;;2.05;0.50;;;21.90;46.70;;;;;;5047260;28;20032;-51
2022/09/18 06:53:32;;;;;;;2.15;0.75;;;21.90;46.70;;;;;;5045690;28;20507;-47
2022/09/18 06:56:02;;;;;;;2.25;0.90;;;21.90;46.70;;;;;;5035673;28;20022;-53
2022/09/18 06:58:31;;;;;;;2.22;0.70;;;21.90;46.70;;;;;;5039809;28;20152;-47
2022/09/18 07:01:01;;;;;;;1.35;0.60;;;21.90;46.70;;;;;;5043042;28;20116;-55
2022/09/18 07:03:33;;;;;;;1.95;0.77;;;21.90;46.70;;;;;;5043134;28;20090;-48
2022/09/18 07:06:31;;;;;;;2.05;0.55;;;21.90;46.70;;;;;;5032114;28;20056;-49
2022/09/18 07:08:57;;;;;;;2.75;0.63;;;21.90;46.80;;;;;;5022578;28;20415;-50
2022/09/18 07:11:35;;;;;;;2.22;0.70;;;21.90;46.70;;;;;;5072073;28;20090;-51
2022/09/18 07:14:07;;;;;;;3.10;0.80;;;21.90;46.70;;;;;;5036650;28;20049;-45
2022/09/18 07:16:34;;;;;;;2.03;0.80;;;21.90;46.70;;;;;;5052080;28;20076;-49
2022/09/18 07:19:02;;;;;;;2.60;0.70;;;21.90;46.70;;;;;;5065631;28;20333;-49
2022/09/18 07:21:29;;;;;;;3.13;0.75;;;21.90;46.70;;;;;;5054965;28;20086;-48
2022/09/18 07:23:56;;;;;;;2.05;0.80;;;21.90;46.70;;;;;;5037784;28;20057;-48
2022/09/18 07:26:22;;;;;;;1.58;0.70;;;21.90;46.70;;;;;;5051328;28;20044;-48
2022/09/18 07:28:50;;;;;;;2.30;0.70;;;21.90;46.70;;;;;;5071664;28;20029;-47
2022/09/18 07:31:20;;;;;;;2.47;0.88;;;21.90;46.90;;;;;;5072146;28;20039;-51
2022/09/18 07:33:52;;;;;;;2.00;0.60;;;21.90;46.90;;;;;;5058883;28;20084;-50
2022/09/18 07:36:19;;;;;;;3.17;0.88;;;21.90;47.00;;;;;;5031927;28;20034;-51
2022/09/18 07:38:51;;;;;;;2.13;0.88;;;21.90;47.00;;;;;;5015068;28;20026;-49
2022/09/18 07:41:18;;;;;;;2.42;0.90;;;21.90;47.00;;;;;;5031839;28;20025;-52
2022/09/18 07:43:47;;;;;;;3.47;1.27;;;21.90;47.10;;;;;;5015660;28;20087;-47
2022/09/18 07:46:13;;;;;;;5.47;1.20;;;21.90;47.10;;;;;;5041625;28;20077;-49
2022/09/18 07:48:39;;;;;;;3.75;1.23;;;21.90;47.20;;;;;;5015608;28;20030;-50
2022/09/18 07:51:26;;;;;;;3.13;1.25;;;21.90;47.20;;;;;;5048804;28;20110;-47
2022/09/18 07:53:53;;;;;;;2.53;1.02;;;21.90;47.20;;;;;;5049559;28;20105;-48
2022/09/18 07:56:45;;;;;;;2.95;0.80;;;21.90;47.10;;;;;;5027785;28;20128;-48
2022/09/18 07:59:11;;;;;;;5.63;1.60;;;21.90;47.10;;;;;;5050130;28;20033;-48
2022/09/18 08:01:37;;;;;;;3.83;1.05;;;21.90;47.80;;;;;;5036842;28;20036;-49
2022/09/18 08:04:05;;;;;;;2.47;1.00;;;21.90;47.20;;;;;;5047489;28;20029;-48
2022/09/18 08:06:53;;;;;;;2.03;0.82;;;21.90;47.30;;;;;;5051250;28;20096;-52
2022/09/18 08:09:34;;;;;;;4.82;1.10;;;21.90;47.40;;;;;;5037945;28;20356;-50
2022/09/18 08:12:20;;;;;;;4.38;1.00;;;21.90;47.40;;;;;;5035271;28;20520;-53
2022/09/18 08:15:25;;;;;;;2.83;0.80;;;21.90;47.50;;;;;;5013460;28;20095;-48
2022/09/18 08:18:11;;;;;;;2.85;1.00;;;21.90;47.50;;;;;;5018136;28;20112;-49
2022/09/18 08:21:09;;;;;;;4.45;1.10;;;21.90;47.60;;;;;;5018966;28;20120;-47
2022/09/18 08:23:40;;;;;;;4.00;1.10;;;21.90;48.20;;;;;;5030794;28;20044;-52
2022/09/18 08:26:06;;;;;;;3.13;0.70;;;21.90;47.70;;;;;;5046078;28;20511;-48
2022/09/18 08:28:32;;;;;;;4.20;0.88;;;21.90;47.70;;;;;;5050649;28;20041;-50
2022/09/18 08:31:00;;;;;;;2.28;0.77;;;21.90;47.70;;;;;;5056640;28;20028;-53
2022/09/18 08:33:26;;;;;;;3.00;0.70;;;21.90;47.70;;;;;;5059940;28;20812;-49
2022/09/18 08:35:54;;;;;;;2.50;0.88;;;21.90;47.70;;;;;;5044353;28;20037;-52
2022/09/18 08:38:29;;;;;;;1.60;0.70;;;21.90;47.70;;;;;;5032533;28;20099;-50
2022/09/18 08:41:24;;;;;;;2.92;0.63;;;21.90;47.70;;;;;;5032869;28;20048;-51
2022/09/18 08:43:58;;;;;;;3.08;1.00;;;21.90;47.60;;;;;;5032724;28;20752;-49
2022/09/18 08:46:36;;;;;;;1.67;0.75;;;21.90;47.70;;;;;;5032509;28;20087;-51
2022/09/18 08:49:20;;;;;;;2.30;0.60;;;21.90;47.60;;;;;;5031709;28;20022;-52
2022/09/18 08:52:10;;;;;;;2.15;0.82;;;21.90;47.70;;;;;;5049790;28;20029;-50
2022/09/18 08:54:52;;;;;;;2.45;0.63;;;21.90;47.70;;;;;;5054074;28;20395;-50
2022/09/18 08:58:00;;;;;;;1.75;0.50;;;21.90;47.70;;;;;;5039627;28;20056;-48
2022/09/18 09:00:34;;;;;;;2.42;0.70;;;21.90;47.70;;;;;;5051107;28;20333;-49
2022/09/18 09:03:24;;;;;;;2.78;1.00;;;21.90;47.80;;;;;;5042993;28;20079;-46
2022/09/18 09:06:43;;;;;;;1.73;0.65;;;21.90;47.80;;;;;;5041795;28;20036;-49
2022/09/18 09:09:28;;;;;;;2.65;0.98;;;21.90;47.80;;;;;;5027250;28;20081;-49
2022/09/18 09:12:23;;;;;;;7.80;3.92;;;21.90;48.00;;;;;;5050475;28;20056;-52
2022/09/18 09:15:13;;;;;;;12.15;5.65;;;21.90;48.40;;;;;;5034449;28;20041;-49
2022/09/18 09:17:41;;;;;;;15.82;8.48;;;21.90;50.10;;;;;;5038247;28;20030;-54
2022/09/18 09:20:23;;;;;;;12.73;7.05;;;21.90;51.80;;;;;;5013932;28;20041;-50
2022/09/18 09:23:14;;;;;;;20.02;7.10;;;21.90;53.60;;;;;;5051643;28;20026;-52
2022/09/18 09:25:50;;;;;;;15.25;6.28;;;22.00;55.00;;;;;;5055550;28;20484;-49
2022/09/18 09:28:42;;;;;;;12.07;6.25;;;22.00;55.60;;;;;;5057332;28;20029;-53
2022/09/18 09:31:18;;;;;;;9.10;4.35;;;22.00;55.80;;;;;;5053707;28;20076;-51
2022/09/18 09:34:14;;;;;;;8.48;3.42;;;22.10;55.40;;;;;;5037972;28;20495;-51
2022/09/18 09:37:18;;;;;;;6.50;2.65;;;22.10;54.70;;;;;;5033494;28;20072;-51
2022/09/18 09:39:51;;;;;;;5.78;3.03;;;22.10;53.90;;;;;;5041758;28;20356;-53
2022/09/18 09:42:22;;;;;;;5.10;2.30;;;22.10;53.40;;;;;;5037557;28;20132;-50
2022/09/18 09:44:51;;;;;;;7.75;3.20;;;22.10;53.00;;;;;;5038145;28;20025;-49
2022/09/18 09:47:25;;;;;;;12.18;4.93;;;22.20;52.70;;;;;;5057981;28;20028;-50
2022/09/18 09:49:58;;;;;;;;;;;22.20;52.90;;;;;;5056889;28;20029;-48
2022/09/18 09:52:30;;;;;;;18.48;6.13;;;22.20;53.50;;;;;;5055897;28;19909;-49
2022/09/18 09:55:20;;;;;;;19.88;11.90;;;22.20;54.70;;;;;;5056125;28;20086;-51
2022/09/18 09:58:10;;;;;;;17.98;11.00;;;22.20;55.60;;;;;;5028245;28;20042;-51
2022/09/18 10:00:51;;;;;;;17.42;8.50;;;22.20;56.10;;;;;;5057590;28;20025;-49
2022/09/18 10:03:31;;;;;;;13.52;7.45;;;22.20;56.20;;;;;;5044249;28;20468;-55
2022/09/18 10:06:30;;;;;;;13.25;6.90;;;22.30;55.90;;;;;;5055469;28;20025;-47
2022/09/18 10:09:09;;;;;;;14.77;7.07;;;22.30;55.70;;;;;;5046292;28;20068;-51
2022/09/18 10:11:39;;;;;;;16.02;6.18;;;22.30;56.20;;;;;;5050099;28;20094;-51
2022/09/18 10:14:16;;;;;;;12.95;5.50;;;22.30;56.20;;;;;;5055927;28;20055;-54
2022/09/18 10:16:47;;;;;;;11.23;5.35;;;22.40;55.70;;;;;;5052784;28;20037;-49
2022/09/18 10:19:17;;;;;;;11.30;6.22;;;22.40;55.40;;;;;;5048090;28;20080;-48
2022/09/18 10:21:44;;;;;;;10.43;5.35;;;22.40;55.40;;;;;;5056151;28;20466;-55
2022/09/18 10:24:29;;;;;;;10.35;4.53;;;22.40;55.10;;;;;;5054856;28;20029;-52
2022/09/18 10:27:11;;;;;;;6.90;4.10;;;22.40;54.40;;;;;;5068757;28;20437;-49
2022/09/18 10:29:38;;;;;;;7.65;3.53;;;22.40;53.80;;;;;;5060967;28;20457;-49
2022/09/18 10:32:10;;;;;;;9.30;2.90;;;22.40;53.40;;;;;;5068869;28;20030;-51
2022/09/18 10:34:44;;;;;;;5.50;2.80;;;22.40;53.00;;;;;;5053993;28;20045;-50
2022/09/18 10:37:27;;;;;;;6.60;2.83;;;22.50;52.60;;;;;;5040168;28;20029;-47
2022/09/18 10:40:00;;;;;;;4.55;2.47;;;22.50;52.30;;;;;;5048323;28;20448;-50
2022/09/18 10:42:31;;;;;;;5.53;2.15;;;22.50;52.10;;;;;;5059496;28;20120;-45
2022/09/18 10:45:29;;;;;;;5.40;2.13;;;22.50;52.00;;;;;;5055427;28;20032;-47
2022/09/18 10:48:28;;;;;;;5.55;1.92;;;22.50;51.90;;;;;;5058364;28;20751;-49
2022/09/18 10:50:57;;;;;;;5.93;2.33;;;22.50;51.90;;;;;;5065183;28;20436;-49
2022/09/18 10:53:41;;;;;;;3.75;1.83;;;22.50;51.60;;;;;;5045121;28;20040;-50
2022/09/18 10:56:27;;;;;;;5.78;1.85;;;22.50;51.40;;;;;;5046383;28;20037;-47
2022/09/18 10:58:55;;;;;;;3.80;1.75;;;22.50;51.20;;;;;;5039617;28;20033;-46
2022/09/18 11:01:23;;;;;;;4.10;2.13;;;22.50;50.90;;;;;;5041991;28;20036;-63
2022/09/18 11:04:03;;;;;;;3.08;1.20;;;22.50;50.90;;;;;;5038459;28;20475;-62
2022/09/18 11:06:35;;;;;;;2.22;1.23;;;22.50;49.60;;;;;;5036523;28;20176;-47
2022/09/18 11:09:11;;;;;;;3.28;1.63;;;22.40;49.30;;;;;;5046946;28;20040;-48
2022/09/18 11:11:50;;;;;;;7.18;2.25;;;22.40;49.40;;;;;;5038963;28;20346;-48
2022/09/18 11:14:28;;;;;;;3.22;1.58;;;22.50;49.50;;;;;;5048198;28;20046;-50
2022/09/18 11:17:21;;;;;;;3.58;1.80;;;22.40;49.50;;;;;;5047538;28;20044;-51
2022/09/18 11:19:53;;;;;;;5.93;1.80;;;22.40;49.50;;;;;;5038965;28;20156;-51
2022/09/18 11:22:40;;;;;;;3.72;1.67;;;22.40;49.40;;;;;;5039420;28;20028;-52
2022/09/18 11:25:20;;;;;;;5.00;2.10;;;22.50;49.50;;;;;;5041593;28;20030;-49
2022/09/18 11:27:54;;;;;;;3.22;1.50;;;22.50;49.50;;;;;;5047962;28;20040;-50
2022/09/18 11:30:28;;;;;;;3.17;1.45;;;22.50;49.40;;;;;;5042128;28;20052;-49
2022/09/18 11:33:14;;;;;;;5.05;1.80;;;22.40;49.30;;;;;;5037428;28;20380;-49
2022/09/18 11:35:47;;;;;;;3.25;1.58;;;22.50;49.40;;;;;;5043460;28;20031;-49
2022/09/18 11:38:18;;;;;;;2.25;1.40;;;22.40;49.30;;;;;;5035265;28;20049;-47
2022/09/18 11:40:50;;;;;;;2.92;1.50;;;22.50;49.30;;;;;;5041975;28;20033;-50
2022/09/18 11:43:26;;;;;;;2.58;1.40;;;22.50;49.30;;;;;;5043534;28;20075;-47
2022/09/18 11:46:12;;;;;;;3.00;1.50;;;22.50;49.30;;;;;;5042095;28;20047;-52
2022/09/18 11:48:50;;;;;;;2.30;1.15;;;22.50;49.30;;;;;;5040680;28;20040;-49
2022/09/18 11:51:25;;;;;;;3.00;1.48;;;22.50;49.30;;;;;;5035193;28;20411;-51
2022/09/18 11:54:05;;;;;;;2.45;1.10;;;22.40;49.20;;;;;;5039384;28;20416;-52
2022/09/18 11:56:50;;;;;;;3.10;1.08;;;22.40;49.10;;;;;;5045800;28;20036;-50
2022/09/18 11:59:36;;;;;;;3.92;1.35;;;22.40;49.10;;;;;;5044745;28;20111;-51
2022/09/18 12:02:26;;;;;;;4.28;1.60;;;22.40;49.00;;;;;;5041142;28;20041;-53
2022/09/18 12:05:03;;;;;;;1.92;0.90;;;22.40;49.00;;;;;;5039407;28;20125;-53
2022/09/18 12:07:47;;;;;;;3.15;1.00;;;22.50;49.10;;;;;;5038209;28;20060;-52
2022/09/18 12:10:26;;;;;;;2.33;1.27;;;22.40;49.10;;;;;;5058846;28;20040;-50
2022/09/18 12:13:13;;;;;;;5.53;1.27;;;22.40;49.10;;;;;;5038103;28;20037;-54
2022/09/18 12:15:45;;;;;;;3.70;1.33;;;22.40;49.10;;;;;;5042921;28;20033;-51
2022/09/18 12:18:20;;;;;;;2.85;1.02;;;22.40;49.20;;;;;;5042140;28;20404;-50
2022/09/18 12:20:57;;;;;;;4.10;1.08;;;22.40;49.20;;;;;;5044018;28;20024;-53
2022/09/18 12:23:25;;;;;;;2.78;1.10;;;22.40;49.20;;;;;;5038916;28;20819;-51
2022/09/18 12:26:13;;;;;;;2.35;1.00;;;22.40;49.30;;;;;;5037566;28;20040;-51
2022/09/18 12:29:29;;;;;;;2.03;1.10;;;22.40;49.30;;;;;;5031720;28;20029;-51
2022/09/18 12:32:20;;;;;;;3.67;1.10;;;22.40;49.30;;;;;;5019994;28;20491;-52
2022/09/18 12:34:54;;;;;;;2.17;0.80;;;22.40;49.40;;;;;;5026799;28;20046;-51
2022/09/18 12:37:42;;;;;;;1.55;0.85;;;22.40;49.50;;;;;;5034324;28;20045;-52
2022/09/18 12:40:52;;;;;;;3.53;1.13;;;22.40;49.60;;;;;;5032975;28;20029;-51
2022/09/18 12:43:18;;;;;;;1.70;0.70;;;22.40;49.60;;;;;;4996769;28;20465;-47
2022/09/18 12:46:05;;;;;;;1.65;0.80;;;22.40;49.60;;;;;;5002646;28;20049;-51
2022/09/18 12:49:08;;;;;;;2.45;1.00;;;22.40;49.60;;;;;;5022306;28;20053;-47
2022/09/18 12:51:54;;;;;;;2.15;0.80;;;22.40;49.50;;;;;;5037625;28;20063;-48
2022/09/18 12:54:22;;;;;;;2.00;0.80;;;22.40;49.40;;;;;;5039803;28;20212;-46
2022/09/18 12:56:59;;;;;;;2.05;0.80;;;22.40;49.40;;;;;;5034899;28;20379;-52
2022/09/18 12:59:49;;;;;;;1.40;0.70;;;22.40;49.30;;;;;;5039462;28;20030;-47
2022/09/18 13:02:45;;;;;;;1.58;0.80;;;22.40;49.20;;;;;;5047475;28;20451;-47
2022/09/18 13:05:24;;;;;;;1.60;0.80;;;22.40;49.10;;;;;;5036962;28;20066;-47
2022/09/18 13:08:29;;;;;;;2.08;0.90;;;22.40;49.10;;;;;;5049258;28;20057;-52
2022/09/18 13:11:04;;;;;;;1.58;0.68;;;22.40;49.00;;;;;;5034868;28;20116;-47
2022/09/18 13:13:52;;;;;;;1.63;0.75;;;22.40;49.00;;;;;;5040170;28;20037;-47
2022/09/18 13:16:35;;;;;;;1.27;0.73;;;22.40;49.10;;;;;;5040807;28;20117;-51
2022/09/18 13:19:06;;;;;;;2.08;0.80;;;22.40;49.20;;;;;;5044873;28;20044;-49
2022/09/18 13:21:36;;;;;;;2.20;0.88;;;22.40;49.30;;;;;;5046644;28;20033;-50
2022/09/18 13:24:04;;;;;;;1.42;0.70;;;22.40;49.40;;;;;;5045651;28;21183;-48
2022/09/18 13:26:35;;;;;;;3.03;1.10;;;22.40;49.40;;;;;;5047322;28;20108;-47
2022/09/18 13:29:02;;;;;;;2.78;0.93;;;22.40;49.40;;;;;;5049540;28;20409;-49